sensor_id;sensor_type;location;lat;lon;timestamp;temperature;humidity
5775;DHT22;2913;51.120;6.772;2023-08-21T00:00:57;21.30;99.90
5775;DHT22;2913;51.120;6.772;2023-08-21T00:03:23;21.30;99.90
5775;DHT22;2913;51.120;6.772;2023-08-21T00:05:48;21.30;99.90
5775;DHT22;2913;51.120;6.772;2023-08-21T00:10:40;21.20;99.90
5775;DHT22;2913;51.120;6.772;2023-08-21T00:25:21;21.10;99.90
5775;DHT22;2913;51.120;6.772;2023-08-21T00:27:49;20.90;99.90
5775;DHT22;2913;51.120;6.772;2023-08-21T00:30:17;21.00;99.90
5775;DHT22;2913;51.120;6.772;2023-08-21T00:32:45;21.00;99.90
5775;DHT22;2913;51.120;6.772;2023-08-21T00:35:11;21.00;99.90
5775;DHT22;2913;51.120;6.772;2023-08-21T00:37:36;20.90;99.90
5775;DHT22;2913;51.120;6.772;2023-08-21T00:40:02;20.90;99.90
5775;DHT22;2913;51.120;6.772;2023-08-21T00:42:28;20.80;99.90
5775;DHT22;2913;51.120;6.772;2023-08-21T00:44:59;20.90;99.90
5775;DHT22;2913;51.120;6.772;2023-08-21T00:47:29;20.80;99.90
5775;DHT22;2913;51.120;6.772;2023-08-21T00:49:58;20.70;99.90
5775;DHT22;2913;51.120;6.772;2023-08-21T00:52:24;20.80;99.90
5775;DHT22;2913;51.120;6.772;2023-08-21T00:54:50;20.80;99.90
5775;DHT22;2913;51.120;6.772;2023-08-21T00:57:15;20.70;99.90
5775;DHT22;2913;51.120;6.772;2023-08-21T00:59:41;20.70;99.90
5775;DHT22;2913;51.120;6.772;2023-08-21T01:02:07;20.70;99.90
5775;DHT22;2913;51.120;6.772;2023-08-21T01:04:34;20.80;99.90
5775;DHT22;2913;51.120;6.772;2023-08-21T01:07:00;20.80;99.90
5775;DHT22;2913;51.120;6.772;2023-08-21T01:09:50;20.80;99.90
5775;DHT22;2913;51.120;6.772;2023-08-21T01:12:44;20.70;99.90
5775;DHT22;2913;51.120;6.772;2023-08-21T01:15:16;20.70;99.90
5775;DHT22;2913;51.120;6.772;2023-08-21T01:17:42;20.70;99.90
5775;DHT22;2913;51.120;6.772;2023-08-21T01:20:09;20.60;99.90
5775;DHT22;2913;51.120;6.772;2023-08-21T01:22:37;20.70;99.90
5775;DHT22;2913;51.120;6.772;2023-08-21T01:25:07;20.50;99.90
5775;DHT22;2913;51.120;6.772;2023-08-21T01:27:34;20.40;99.90
5775;DHT22;2913;51.120;6.772;2023-08-21T01:30:03;20.40;99.90
5775;DHT22;2913;51.120;6.772;2023-08-21T01:32:32;20.20;99.90
5775;DHT22;2913;51.120;6.772;2023-08-21T01:35:00;20.30;99.90
5775;DHT22;2913;51.120;6.772;2023-08-21T01:37:30;20.30;99.90
5775;DHT22;2913;51.120;6.772;2023-08-21T01:40:03;20.20;99.90
5775;DHT22;2913;51.120;6.772;2023-08-21T01:42:31;20.10;99.90
5775;DHT22;2913;51.120;6.772;2023-08-21T01:44:57;20.10;99.90
5775;DHT22;2913;51.120;6.772;2023-08-21T01:47:23;20.10;99.90
5775;DHT22;2913;51.120;6.772;2023-08-21T01:49:51;20.00;99.90
5775;DHT22;2913;51.120;6.772;2023-08-21T01:52:20;20.10;99.90
5775;DHT22;2913;51.120;6.772;2023-08-21T01:54:50;20.10;99.90
5775;DHT22;2913;51.120;6.772;2023-08-21T01:57:15;20.20;99.90
5775;DHT22;2913;51.120;6.772;2023-08-21T01:59:43;20.20;99.90
5775;DHT22;2913;51.120;6.772;2023-08-21T02:02:09;20.10;99.90
5775;DHT22;2913;51.120;6.772;2023-08-21T02:04:35;20.00;99.90
5775;DHT22;2913;51.120;6.772;2023-08-21T02:07:02;20.10;99.90
5775;DHT22;2913;51.120;6.772;2023-08-21T02:09:30;20.10;99.90
5775;DHT22;2913;51.120;6.772;2023-08-21T02:11:56;20.10;99.90
5775;DHT22;2913;51.120;6.772;2023-08-21T02:16:50;20.20;99.90
5775;DHT22;2913;51.120;6.772;2023-08-21T02:19:18;20.10;99.90
5775;DHT22;2913;51.120;6.772;2023-08-21T02:21:46;20.10;99.90
5775;DHT22;2913;51.120;6.772;2023-08-21T02:29:06;20.10;99.90
5775;DHT22;2913;51.120;6.772;2023-08-21T02:36:26;20.10;99.90
5775;DHT22;2913;51.120;6.772;2023-08-21T02:38:51;20.00;99.90
5775;DHT22;2913;51.120;6.772;2023-08-21T02:41:19;20.00;99.90
5775;DHT22;2913;51.120;6.772;2023-08-21T02:43:45;20.00;99.90
5775;DHT22;2913;51.120;6.772;2023-08-21T02:46:10;20.00;99.90
5775;DHT22;2913;51.120;6.772;2023-08-21T02:48:36;20.10;99.90
5775;DHT22;2913;51.120;6.772;2023-08-21T02:51:04;20.00;99.90
5775;DHT22;2913;51.120;6.772;2023-08-21T02:53:30;20.00;99.90
5775;DHT22;2913;51.120;6.772;2023-08-21T02:55:58;20.00;99.90
5775;DHT22;2913;51.120;6.772;2023-08-21T02:58:26;20.00;99.90
5775;DHT22;2913;51.120;6.772;2023-08-21T03:00:53;20.00;99.90
5775;DHT22;2913;51.120;6.772;2023-08-21T03:03:22;19.90;99.90
5775;DHT22;2913;51.120;6.772;2023-08-21T03:05:47;20.00;99.90
5775;DHT22;2913;51.120;6.772;2023-08-21T03:08:15;19.90;99.90
5775;DHT22;2913;51.120;6.772;2023-08-21T03:10:42;20.00;99.90
5775;DHT22;2913;51.120;6.772;2023-08-21T03:13:07;19.90;99.90
5775;DHT22;2913;51.120;6.772;2023-08-21T03:15:36;20.00;99.90
5775;DHT22;2913;51.120;6.772;2023-08-21T03:18:01;19.90;99.90
5775;DHT22;2913;51.120;6.772;2023-08-21T03:20:27;19.90;99.90
5775;DHT22;2913;51.120;6.772;2023-08-21T03:22:55;19.90;99.90
5775;DHT22;2913;51.120;6.772;2023-08-21T03:25:23;19.90;99.90
5775;DHT22;2913;51.120;6.772;2023-08-21T03:27:48;19.90;99.90
5775;DHT22;2913;51.120;6.772;2023-08-21T03:30:17;19.90;99.90
5775;DHT22;2913;51.120;6.772;2023-08-21T03:35:09;19.80;99.90
5775;DHT22;2913;51.120;6.772;2023-08-21T03:37:36;19.80;99.90
5775;DHT22;2913;51.120;6.772;2023-08-21T03:40:06;19.80;99.90
5775;DHT22;2913;51.120;6.772;2023-08-21T03:42:34;19.80;99.90
5775;DHT22;2913;51.120;6.772;2023-08-21T03:44:59;19.90;99.90
5775;DHT22;2913;51.120;6.772;2023-08-21T03:47:25;19.90;99.90
5775;DHT22;2913;51.120;6.772;2023-08-21T03:49:55;19.90;99.90
5775;DHT22;2913;51.120;6.772;2023-08-21T03:57:17;19.60;99.90
5775;DHT22;2913;51.120;6.772;2023-08-21T03:59:43;19.80;99.90
5775;DHT22;2913;51.120;6.772;2023-08-21T04:02:08;19.70;99.90
5775;DHT22;2913;51.120;6.772;2023-08-21T04:04:36;19.70;99.90
5775;DHT22;2913;51.120;6.772;2023-08-21T04:09:31;19.50;99.90
5775;DHT22;2913;51.120;6.772;2023-08-21T04:11:56;19.80;99.90
5775;DHT22;2913;51.120;6.772;2023-08-21T04:16:48;19.80;99.90
5775;DHT22;2913;51.120;6.772;2023-08-21T04:19:14;19.80;99.90
5775;DHT22;2913;51.120;6.772;2023-08-21T04:21:46;19.70;99.90
5775;DHT22;2913;51.120;6.772;2023-08-21T04:24:11;19.70;99.90
5775;DHT22;2913;51.120;6.772;2023-08-21T04:29:03;19.80;99.90
5775;DHT22;2913;51.120;6.772;2023-08-21T04:31:32;19.70;99.90
5775;DHT22;2913;51.120;6.772;2023-08-21T04:36:24;19.70;99.90
5775;DHT22;2913;51.120;6.772;2023-08-21T04:38:51;19.60;99.90
5775;DHT22;2913;51.120;6.772;2023-08-21T04:41:17;19.70;99.90
5775;DHT22;2913;51.120;6.772;2023-08-21T04:46:09;19.70;99.90
5775;DHT22;2913;51.120;6.772;2023-08-21T04:48:34;19.70;99.90
5775;DHT22;2913;51.120;6.772;2023-08-21T04:53:26;19.60;99.90
5775;DHT22;2913;51.120;6.772;2023-08-21T04:58:17;19.50;99.90
5775;DHT22;2913;51.120;6.772;2023-08-21T05:00:44;19.50;99.90
5775;DHT22;2913;51.120;6.772;2023-08-21T05:03:11;19.60;99.90
5775;DHT22;2913;51.120;6.772;2023-08-21T05:05:40;19.60;99.90
5775;DHT22;2913;51.120;6.772;2023-08-21T05:08:07;19.70;99.90
5775;DHT22;2913;51.120;6.772;2023-08-21T05:10:33;19.70;99.90
5775;DHT22;2913;51.120;6.772;2023-08-21T05:12:59;20.10;99.90
5775;DHT22;2913;51.120;6.772;2023-08-21T05:15:24;20.50;99.90
5775;DHT22;2913;51.120;6.772;2023-08-21T05:17:50;20.50;99.90
5775;DHT22;2913;51.120;6.772;2023-08-21T05:20:15;20.40;99.90
5775;DHT22;2913;51.120;6.772;2023-08-21T05:22:41;20.50;99.90
5775;DHT22;2913;51.120;6.772;2023-08-21T05:25:10;21.10;99.90
5775;DHT22;2913;51.120;6.772;2023-08-21T05:27:35;21.50;99.90
5775;DHT22;2913;51.120;6.772;2023-08-21T05:30:03;22.00;99.90
5775;DHT22;2913;51.120;6.772;2023-08-21T05:32:28;22.20;99.90
5775;DHT22;2913;51.120;6.772;2023-08-21T05:34:54;22.40;99.90
5775;DHT22;2913;51.120;6.772;2023-08-21T05:37:22;22.50;99.90
5775;DHT22;2913;51.120;6.772;2023-08-21T05:39:47;22.60;99.90
5775;DHT22;2913;51.120;6.772;2023-08-21T05:42:16;22.80;99.90
5775;DHT22;2913;51.120;6.772;2023-08-21T05:44:42;22.90;99.90
5775;DHT22;2913;51.120;6.772;2023-08-21T05:47:07;23.10;99.90
5775;DHT22;2913;51.120;6.772;2023-08-21T05:49:33;23.40;99.90
5775;DHT22;2913;51.120;6.772;2023-08-21T05:52:01;23.50;99.90
5775;DHT22;2913;51.120;6.772;2023-08-21T05:54:26;23.70;99.90
5775;DHT22;2913;51.120;6.772;2023-08-21T05:56:56;23.90;99.90
5775;DHT22;2913;51.120;6.772;2023-08-21T05:59:31;23.90;99.90
5775;DHT22;2913;51.120;6.772;2023-08-21T06:04:25;24.30;99.90
5775;DHT22;2913;51.120;6.772;2023-08-21T06:06:52;24.20;99.90
5775;DHT22;2913;51.120;6.772;2023-08-21T06:09:19;24.50;99.90
5775;DHT22;2913;51.120;6.772;2023-08-21T06:11:44;24.70;99.90
5775;DHT22;2913;51.120;6.772;2023-08-21T06:14:10;24.90;99.90
5775;DHT22;2913;51.120;6.772;2023-08-21T06:16:38;24.90;99.90
5775;DHT22;2913;51.120;6.772;2023-08-21T06:19:03;25.00;99.90
5775;DHT22;2913;51.120;6.772;2023-08-21T06:21:29;25.20;99.90
5775;DHT22;2913;51.120;6.772;2023-08-21T06:23:57;25.40;99.90
5775;DHT22;2913;51.120;6.772;2023-08-21T06:26:25;25.50;99.90
5775;DHT22;2913;51.120;6.772;2023-08-21T06:28:53;25.50;99.90
5775;DHT22;2913;51.120;6.772;2023-08-21T06:31:19;25.30;99.90
5775;DHT22;2913;51.120;6.772;2023-08-21T06:33:48;25.10;99.90
5775;DHT22;2913;51.120;6.772;2023-08-21T06:36:14;25.00;99.90
5775;DHT22;2913;51.120;6.772;2023-08-21T06:38:39;25.10;99.90
5775;DHT22;2913;51.120;6.772;2023-08-21T06:41:08;25.40;99.90
5775;DHT22;2913;51.120;6.772;2023-08-21T06:43:36;25.50;99.90
5775;DHT22;2913;51.120;6.772;2023-08-21T06:46:01;25.60;99.90
5775;DHT22;2913;51.120;6.772;2023-08-21T06:48:27;25.70;99.90
5775;DHT22;2913;51.120;6.772;2023-08-21T06:50:55;25.90;99.90
5775;DHT22;2913;51.120;6.772;2023-08-21T06:53:20;26.00;99.90
5775;DHT22;2913;51.120;6.772;2023-08-21T06:55:48;26.00;99.90
5775;DHT22;2913;51.120;6.772;2023-08-21T06:58:16;26.20;99.90
5775;DHT22;2913;51.120;6.772;2023-08-21T07:00:42;26.30;99.90
5775;DHT22;2913;51.120;6.772;2023-08-21T07:03:10;26.40;99.90
5775;DHT22;2913;51.120;6.772;2023-08-21T07:05:36;26.50;99.90
5775;DHT22;2913;51.120;6.772;2023-08-21T07:10:37;26.60;99.90
5775;DHT22;2913;51.120;6.772;2023-08-21T07:13:03;26.60;99.90
5775;DHT22;2913;51.120;6.772;2023-08-21T07:15:29;26.80;99.90
5775;DHT22;2913;51.120;6.772;2023-08-21T07:17:55;26.90;99.90
5775;DHT22;2913;51.120;6.772;2023-08-21T07:20:21;27.00;99.90
5775;DHT22;2913;51.120;6.772;2023-08-21T07:22:49;26.90;99.90
5775;DHT22;2913;51.120;6.772;2023-08-21T07:25:15;26.90;99.90
5775;DHT22;2913;51.120;6.772;2023-08-21T07:27:45;26.80;99.90
5775;DHT22;2913;51.120;6.772;2023-08-21T07:30:11;26.80;99.90
5775;DHT22;2913;51.120;6.772;2023-08-21T07:32:36;26.80;99.90
5775;DHT22;2913;51.120;6.772;2023-08-21T07:35:05;26.80;99.90
5775;DHT22;2913;51.120;6.772;2023-08-21T07:37:33;26.70;99.90
5775;DHT22;2913;51.120;6.772;2023-08-21T07:39:58;26.70;99.90
5775;DHT22;2913;51.120;6.772;2023-08-21T07:42:27;27.00;99.90
5775;DHT22;2913;51.120;6.772;2023-08-21T07:44:53;26.90;99.90
5775;DHT22;2913;51.120;6.772;2023-08-21T07:47:20;27.00;99.90
5775;DHT22;2913;51.120;6.772;2023-08-21T07:49:46;27.10;99.90
5775;DHT22;2913;51.120;6.772;2023-08-21T07:52:11;27.10;99.90
5775;DHT22;2913;51.120;6.772;2023-08-21T07:54:41;27.10;99.90
5775;DHT22;2913;51.120;6.772;2023-08-21T07:57:12;27.20;99.90
5775;DHT22;2913;51.120;6.772;2023-08-21T07:59:42;27.10;99.90
5775;DHT22;2913;51.120;6.772;2023-08-21T08:02:10;27.30;99.90
5775;DHT22;2913;51.120;6.772;2023-08-21T08:04:39;27.30;99.90
5775;DHT22;2913;51.120;6.772;2023-08-21T08:07:05;27.40;99.90
5775;DHT22;2913;51.120;6.772;2023-08-21T08:09:33;27.40;99.90
5775;DHT22;2913;51.120;6.772;2023-08-21T08:11:58;27.30;99.90
5775;DHT22;2913;51.120;6.772;2023-08-21T08:14:26;27.40;99.90
5775;DHT22;2913;51.120;6.772;2023-08-21T08:16:54;27.40;99.90
5775;DHT22;2913;51.120;6.772;2023-08-21T08:19:19;27.30;99.90
5775;DHT22;2913;51.120;6.772;2023-08-21T08:21:47;27.00;99.90
5775;DHT22;2913;51.120;6.772;2023-08-21T08:24:13;27.10;99.90
5775;DHT22;2913;51.120;6.772;2023-08-21T08:26:39;26.90;99.90
5775;DHT22;2913;51.120;6.772;2023-08-21T08:29:04;27.10;99.90
5775;DHT22;2913;51.120;6.772;2023-08-21T08:31:33;27.10;99.90
5775;DHT22;2913;51.120;6.772;2023-08-21T08:33:58;27.10;99.90
5775;DHT22;2913;51.120;6.772;2023-08-21T08:36:24;27.30;99.90
5775;DHT22;2913;51.120;6.772;2023-08-21T08:38:52;27.20;99.90
5775;DHT22;2913;51.120;6.772;2023-08-21T08:41:47;26.90;99.90
5775;DHT22;2913;51.120;6.772;2023-08-21T08:44:17;26.90;99.90
5775;DHT22;2913;51.120;6.772;2023-08-21T08:46:43;27.10;99.90
5775;DHT22;2913;51.120;6.772;2023-08-21T08:49:11;27.00;99.90
5775;DHT22;2913;51.120;6.772;2023-08-21T08:51:38;26.90;99.90
5775;DHT22;2913;51.120;6.772;2023-08-21T08:54:07;27.00;99.90
5775;DHT22;2913;51.120;6.772;2023-08-21T08:58:59;27.10;99.90
5775;DHT22;2913;51.120;6.772;2023-08-21T09:03:51;27.30;99.90
5775;DHT22;2913;51.120;6.772;2023-08-21T09:08:54;27.40;99.80
5775;DHT22;2913;51.120;6.772;2023-08-21T09:11:20;27.30;99.90
5775;DHT22;2913;51.120;6.772;2023-08-21T09:13:49;27.30;99.40
5775;DHT22;2913;51.120;6.772;2023-08-21T09:16:18;27.30;97.60
5775;DHT22;2913;51.120;6.772;2023-08-21T09:18:55;27.50;99.00
5775;DHT22;2913;51.120;6.772;2023-08-21T09:21:27;27.50;98.30
5775;DHT22;2913;51.120;6.772;2023-08-21T09:24:01;27.50;98.10
5775;DHT22;2913;51.120;6.772;2023-08-21T09:26:31;27.70;97.70
5775;DHT22;2913;51.120;6.772;2023-08-21T09:29:03;27.80;98.00
5775;DHT22;2913;51.120;6.772;2023-08-21T09:31:31;27.80;97.90
5775;DHT22;2913;51.120;6.772;2023-08-21T09:33:58;27.90;97.40
5775;DHT22;2913;51.120;6.772;2023-08-21T09:41:23;28.10;97.10
5775;DHT22;2913;51.120;6.772;2023-08-21T09:43:49;28.10;97.20
5775;DHT22;2913;51.120;6.772;2023-08-21T09:46:25;28.30;96.20
5775;DHT22;2913;51.120;6.772;2023-08-21T09:48:54;28.30;96.30
5775;DHT22;2913;51.120;6.772;2023-08-21T09:51:21;28.10;95.00
5775;DHT22;2913;51.120;6.772;2023-08-21T09:53:50;27.70;94.30
5775;DHT22;2913;51.120;6.772;2023-08-21T09:56:18;27.80;95.50
5775;DHT22;2913;51.120;6.772;2023-08-21T09:58:44;27.90;96.00
5775;DHT22;2913;51.120;6.772;2023-08-21T10:01:11;28.00;95.20
5775;DHT22;2913;51.120;6.772;2023-08-21T10:03:39;28.00;94.80
5775;DHT22;2913;51.120;6.772;2023-08-21T10:06:06;28.00;95.20
5775;DHT22;2913;51.120;6.772;2023-08-21T10:08:37;28.20;94.10
5775;DHT22;2913;51.120;6.772;2023-08-21T10:11:08;28.10;94.00
5775;DHT22;2913;51.120;6.772;2023-08-21T10:13:39;27.60;94.00
5775;DHT22;2913;51.120;6.772;2023-08-21T10:16:05;27.20;94.10
5775;DHT22;2913;51.120;6.772;2023-08-21T10:18:35;27.50;95.40
5775;DHT22;2913;51.120;6.772;2023-08-21T10:21:19;27.60;95.80
5775;DHT22;2913;51.120;6.772;2023-08-21T10:23:56;27.50;94.80
5775;DHT22;2913;51.120;6.772;2023-08-21T10:26:22;27.60;95.50
5775;DHT22;2913;51.120;6.772;2023-08-21T10:28:53;27.80;94.60
5775;DHT22;2913;51.120;6.772;2023-08-21T10:32:01;27.80;94.20
5775;DHT22;2913;51.120;6.772;2023-08-21T10:34:37;27.80;93.60
5775;DHT22;2913;51.120;6.772;2023-08-21T10:37:11;28.00;94.50
5775;DHT22;2913;51.120;6.772;2023-08-21T10:39:56;28.20;94.70
5775;DHT22;2913;51.120;6.772;2023-08-21T10:42:40;28.30;94.60
5775;DHT22;2913;51.120;6.772;2023-08-21T10:45:11;28.50;94.00
5775;DHT22;2913;51.120;6.772;2023-08-21T10:47:37;28.30;93.40
5775;DHT22;2913;51.120;6.772;2023-08-21T10:50:07;28.20;93.80
5775;DHT22;2913;51.120;6.772;2023-08-21T10:52:37;28.30;94.10
5775;DHT22;2913;51.120;6.772;2023-08-21T10:55:04;28.20;93.60
5775;DHT22;2913;51.120;6.772;2023-08-21T10:57:31;28.10;94.20
5775;DHT22;2913;51.120;6.772;2023-08-21T11:02:27;28.30;93.80
5775;DHT22;2913;51.120;6.772;2023-08-21T11:04:55;28.10;93.10
5775;DHT22;2913;51.120;6.772;2023-08-21T11:07:21;28.00;93.40
5775;DHT22;2913;51.120;6.772;2023-08-21T11:09:47;27.90;93.80
5775;DHT22;2913;51.120;6.772;2023-08-21T11:12:16;28.10;93.60
5775;DHT22;2913;51.120;6.772;2023-08-21T11:14:44;28.30;93.40
5775;DHT22;2913;51.120;6.772;2023-08-21T11:17:11;28.40;92.80
5775;DHT22;2913;51.120;6.772;2023-08-21T11:19:37;28.50;92.80
5775;DHT22;2913;51.120;6.772;2023-08-21T11:22:06;28.50;92.20
5775;DHT22;2913;51.120;6.772;2023-08-21T11:27:07;28.40;92.20
5775;DHT22;2913;51.120;6.772;2023-08-21T11:34:36;28.60;91.80
5775;DHT22;2913;51.120;6.772;2023-08-21T11:37:03;28.70;91.30
5775;DHT22;2913;51.120;6.772;2023-08-21T11:39:41;28.90;91.40
5775;DHT22;2913;51.120;6.772;2023-08-21T11:42:09;29.10;91.00
5775;DHT22;2913;51.120;6.772;2023-08-21T11:44:41;29.10;90.80
5775;DHT22;2913;51.120;6.772;2023-08-21T11:47:12;29.10;90.10
5775;DHT22;2913;51.120;6.772;2023-08-21T11:49:41;29.00;90.10
5775;DHT22;2913;51.120;6.772;2023-08-21T11:52:08;29.20;90.30
5775;DHT22;2913;51.120;6.772;2023-08-21T11:54:35;29.20;89.90
5775;DHT22;2913;51.120;6.772;2023-08-21T11:57:06;29.40;88.30
5775;DHT22;2913;51.120;6.772;2023-08-21T11:59:34;29.10;89.90
5775;DHT22;2913;51.120;6.772;2023-08-21T12:04:27;28.80;89.80
5775;DHT22;2913;51.120;6.772;2023-08-21T12:09:18;28.90;89.70
5775;DHT22;2913;51.120;6.772;2023-08-21T12:11:44;29.00;87.80
5775;DHT22;2913;51.120;6.772;2023-08-21T12:14:10;29.00;89.10
5775;DHT22;2913;51.120;6.772;2023-08-21T12:16:38;29.20;88.80
5775;DHT22;2913;51.120;6.772;2023-08-21T12:19:04;28.80;87.80
5775;DHT22;2913;51.120;6.772;2023-08-21T12:21:30;29.00;88.60
5775;DHT22;2913;51.120;6.772;2023-08-21T12:24:00;29.00;88.90
5775;DHT22;2913;51.120;6.772;2023-08-21T12:26:25;29.20;88.50
5775;DHT22;2913;51.120;6.772;2023-08-21T12:28:51;29.20;87.60
5775;DHT22;2913;51.120;6.772;2023-08-21T12:31:16;29.10;87.50
5775;DHT22;2913;51.120;6.772;2023-08-21T12:33:42;29.20;88.80
5775;DHT22;2913;51.120;6.772;2023-08-21T12:36:10;29.10;87.80
5775;DHT22;2913;51.120;6.772;2023-08-21T12:38:35;29.10;87.80
5775;DHT22;2913;51.120;6.772;2023-08-21T12:41:04;29.10;87.30
5775;DHT22;2913;51.120;6.772;2023-08-21T12:43:30;29.00;88.40
5775;DHT22;2913;51.120;6.772;2023-08-21T12:45:58;29.10;87.90
5775;DHT22;2913;51.120;6.772;2023-08-21T12:48:24;29.00;86.30
5775;DHT22;2913;51.120;6.772;2023-08-21T12:50:49;29.00;88.00
5775;DHT22;2913;51.120;6.772;2023-08-21T12:53:15;28.80;86.50
5775;DHT22;2913;51.120;6.772;2023-08-21T12:55:44;28.60;86.30
5775;DHT22;2913;51.120;6.772;2023-08-21T13:00:39;28.70;87.60
5775;DHT22;2913;51.120;6.772;2023-08-21T13:03:05;28.70;86.10
5775;DHT22;2913;51.120;6.772;2023-08-21T13:05:30;28.80;86.20
5775;DHT22;2913;51.120;6.772;2023-08-21T13:07:56;29.20;87.20
5775;DHT22;2913;51.120;6.772;2023-08-21T13:12:50;29.40;85.60
5775;DHT22;2913;51.120;6.772;2023-08-21T13:15:17;29.50;85.30
5775;DHT22;2913;51.120;6.772;2023-08-21T13:17:45;29.50;85.70
5775;DHT22;2913;51.120;6.772;2023-08-21T13:20:11;29.40;84.60
5775;DHT22;2913;51.120;6.772;2023-08-21T13:22:52;29.60;84.70
5775;DHT22;2913;51.120;6.772;2023-08-21T13:25:23;29.50;84.70
5775;DHT22;2913;51.120;6.772;2023-08-21T13:27:50;29.50;84.90
5775;DHT22;2913;51.120;6.772;2023-08-21T13:30:16;29.10;83.30
5775;DHT22;2913;51.120;6.772;2023-08-21T13:32:42;29.10;83.50
5775;DHT22;2913;51.120;6.772;2023-08-21T13:35:08;29.30;83.10
5775;DHT22;2913;51.120;6.772;2023-08-21T13:37:37;29.10;83.70
5775;DHT22;2913;51.120;6.772;2023-08-21T13:40:04;29.20;85.00
5775;DHT22;2913;51.120;6.772;2023-08-21T13:42:39;29.30;85.30
5775;DHT22;2913;51.120;6.772;2023-08-21T13:45:09;29.30;83.90
5775;DHT22;2913;51.120;6.772;2023-08-21T13:47:37;28.80;83.50
5775;DHT22;2913;51.120;6.772;2023-08-21T13:50:03;29.20;83.90
5775;DHT22;2913;51.120;6.772;2023-08-21T13:52:30;29.20;82.70
5775;DHT22;2913;51.120;6.772;2023-08-21T13:54:58;29.10;82.10
5775;DHT22;2913;51.120;6.772;2023-08-21T13:57:24;28.90;82.70
5775;DHT22;2913;51.120;6.772;2023-08-21T13:59:50;28.80;83.80
5775;DHT22;2913;51.120;6.772;2023-08-21T14:02:16;28.60;84.00
5775;DHT22;2913;51.120;6.772;2023-08-21T14:04:44;28.40;84.80
5775;DHT22;2913;51.120;6.772;2023-08-21T14:07:13;28.50;85.40
5775;DHT22;2913;51.120;6.772;2023-08-21T14:09:39;28.60;85.50
5775;DHT22;2913;51.120;6.772;2023-08-21T14:12:04;28.70;84.80
5775;DHT22;2913;51.120;6.772;2023-08-21T14:14:34;28.70;83.70
5775;DHT22;2913;51.120;6.772;2023-08-21T14:17:05;28.70;84.60
5775;DHT22;2913;51.120;6.772;2023-08-21T14:19:31;28.90;85.20
5775;DHT22;2913;51.120;6.772;2023-08-21T14:21:59;28.90;84.50
5775;DHT22;2913;51.120;6.772;2023-08-21T14:24:26;29.00;84.80
5775;DHT22;2913;51.120;6.772;2023-08-21T14:26:54;29.00;85.50
5775;DHT22;2913;51.120;6.772;2023-08-21T14:31:46;28.60;83.90
5775;DHT22;2913;51.120;6.772;2023-08-21T14:34:17;28.60;85.00
5775;DHT22;2913;51.120;6.772;2023-08-21T14:36:42;28.70;85.10
5775;DHT22;2913;51.120;6.772;2023-08-21T14:39:10;28.50;84.90
5775;DHT22;2913;51.120;6.772;2023-08-21T14:41:38;28.70;85.10
5775;DHT22;2913;51.120;6.772;2023-08-21T14:44:04;28.90;85.00
5775;DHT22;2913;51.120;6.772;2023-08-21T14:46:31;28.90;84.20
5775;DHT22;2913;51.120;6.772;2023-08-21T14:51:27;29.00;82.10
5775;DHT22;2913;51.120;6.772;2023-08-21T14:53:53;29.10;82.80
5775;DHT22;2913;51.120;6.772;2023-08-21T14:56:20;29.20;82.60
5775;DHT22;2913;51.120;6.772;2023-08-21T14:58:48;29.40;83.70
5775;DHT22;2913;51.120;6.772;2023-08-21T15:01:14;29.30;83.80
5775;DHT22;2913;51.120;6.772;2023-08-21T15:03:42;29.30;84.20
5775;DHT22;2913;51.120;6.772;2023-08-21T15:06:08;29.40;84.40
5775;DHT22;2913;51.120;6.772;2023-08-21T15:08:38;29.30;83.80
5775;DHT22;2913;51.120;6.772;2023-08-21T15:11:05;29.50;82.70
5775;DHT22;2913;51.120;6.772;2023-08-21T15:13:33;29.60;83.10
5775;DHT22;2913;51.120;6.772;2023-08-21T15:18:26;29.70;82.50
5775;DHT22;2913;51.120;6.772;2023-08-21T15:20:52;29.70;83.20
5775;DHT22;2913;51.120;6.772;2023-08-21T15:23:17;29.60;81.10
5775;DHT22;2913;51.120;6.772;2023-08-21T15:25:43;29.50;82.10
5775;DHT22;2913;51.120;6.772;2023-08-21T15:30:35;29.20;81.90
5775;DHT22;2913;51.120;6.772;2023-08-21T15:33:03;29.30;82.60
5775;DHT22;2913;51.120;6.772;2023-08-21T15:35:28;29.30;82.50
5775;DHT22;2913;51.120;6.772;2023-08-21T15:37:59;29.20;82.80
5775;DHT22;2913;51.120;6.772;2023-08-21T15:40:24;29.30;83.60
5775;DHT22;2913;51.120;6.772;2023-08-21T15:42:50;29.20;81.70
5775;DHT22;2913;51.120;6.772;2023-08-21T15:45:16;29.20;82.40
5775;DHT22;2913;51.120;6.772;2023-08-21T15:47:41;29.30;82.30
5775;DHT22;2913;51.120;6.772;2023-08-21T15:50:09;29.40;82.80
5775;DHT22;2913;51.120;6.772;2023-08-21T15:52:38;29.50;82.70
5775;DHT22;2913;51.120;6.772;2023-08-21T15:57:32;29.30;82.40
5775;DHT22;2913;51.120;6.772;2023-08-21T16:02:26;29.10;83.90
5775;DHT22;2913;51.120;6.772;2023-08-21T16:04:52;29.00;82.00
5775;DHT22;2913;51.120;6.772;2023-08-21T16:07:17;29.00;82.60
5775;DHT22;2913;51.120;6.772;2023-08-21T16:09:43;28.80;82.80
5775;DHT22;2913;51.120;6.772;2023-08-21T16:12:09;28.70;82.80
5775;DHT22;2913;51.120;6.772;2023-08-21T16:14:34;28.80;83.80
5775;DHT22;2913;51.120;6.772;2023-08-21T16:17:00;28.70;83.70
5775;DHT22;2913;51.120;6.772;2023-08-21T16:19:28;28.40;83.40
5775;DHT22;2913;51.120;6.772;2023-08-21T16:21:58;28.60;83.90
5775;DHT22;2913;51.120;6.772;2023-08-21T16:24:26;28.40;83.30
5775;DHT22;2913;51.120;6.772;2023-08-21T16:26:51;28.30;83.40
5775;DHT22;2913;51.120;6.772;2023-08-21T16:31:43;28.10;83.20
5775;DHT22;2913;51.120;6.772;2023-08-21T16:34:12;28.30;85.50
5775;DHT22;2913;51.120;6.772;2023-08-21T16:36:41;28.30;84.50
5775;DHT22;2913;51.120;6.772;2023-08-21T16:39:07;28.40;84.40
5775;DHT22;2913;51.120;6.772;2023-08-21T16:41:33;28.40;84.20
5775;DHT22;2913;51.120;6.772;2023-08-21T16:44:02;28.30;84.30
5775;DHT22;2913;51.120;6.772;2023-08-21T16:46:28;28.30;84.20
5775;DHT22;2913;51.120;6.772;2023-08-21T16:48:54;28.40;83.00
5775;DHT22;2913;51.120;6.772;2023-08-21T16:53:48;28.30;83.90
5775;DHT22;2913;51.120;6.772;2023-08-21T16:56:18;28.20;83.80
5775;DHT22;2913;51.120;6.772;2023-08-21T16:58:44;28.10;85.20
5775;DHT22;2913;51.120;6.772;2023-08-21T17:01:09;28.10;85.90
5775;DHT22;2913;51.120;6.772;2023-08-21T17:03:37;28.00;85.90
5775;DHT22;2913;51.120;6.772;2023-08-21T17:06:05;28.00;85.00
5775;DHT22;2913;51.120;6.772;2023-08-21T17:08:31;28.00;85.50
5775;DHT22;2913;51.120;6.772;2023-08-21T17:10:56;28.00;85.30
5775;DHT22;2913;51.120;6.772;2023-08-21T17:13:24;27.90;84.80
5775;DHT22;2913;51.120;6.772;2023-08-21T17:15:50;27.90;85.10
5775;DHT22;2913;51.120;6.772;2023-08-21T17:18:20;27.90;84.40
5775;DHT22;2913;51.120;6.772;2023-08-21T17:20:45;27.90;85.10
5775;DHT22;2913;51.120;6.772;2023-08-21T17:23:11;27.70;85.30
5775;DHT22;2913;51.120;6.772;2023-08-21T17:25:39;27.70;85.60
5775;DHT22;2913;51.120;6.772;2023-08-21T17:28:04;27.70;86.70
5775;DHT22;2913;51.120;6.772;2023-08-21T17:30:30;27.70;87.20
5775;DHT22;2913;51.120;6.772;2023-08-21T17:33:00;27.70;86.90
5775;DHT22;2913;51.120;6.772;2023-08-21T17:35:28;27.60;86.60
5775;DHT22;2913;51.120;6.772;2023-08-21T17:37:56;27.50;86.30
5775;DHT22;2913;51.120;6.772;2023-08-21T17:42:47;27.30;86.20
5775;DHT22;2913;51.120;6.772;2023-08-21T17:47:41;27.20;86.70
5775;DHT22;2913;51.120;6.772;2023-08-21T17:52:39;27.20;86.30
5775;DHT22;2913;51.120;6.772;2023-08-21T17:55:07;27.10;86.00
5775;DHT22;2913;51.120;6.772;2023-08-21T17:57:35;27.00;86.00
5775;DHT22;2913;51.120;6.772;2023-08-21T18:00:02;27.00;86.60